createdAt,value
2022-10-23T00:02:02.338Z,30.58
2022-10-23T00:04:31.855Z,11.93
2022-10-23T00:06:58.492Z,19.10
2022-10-23T00:09:25.173Z,13.23
2022-10-23T00:11:53.165Z,10.15
2022-10-23T00:14:24.483Z,12.27
2022-10-23T00:16:51.543Z,10.60
2022-10-23T00:19:18.527Z,9.80
2022-10-23T00:21:45.204Z,10.77
2022-10-23T00:24:14.308Z,12.02
2022-10-23T00:26:41.266Z,8.73
2022-10-23T00:29:08.623Z,9.07
2022-10-23T00:31:38.342Z,6.93
2022-10-23T00:34:08.092Z,7.25
2022-10-23T00:36:35.025Z,13.43
2022-10-23T00:39:01.638Z,17.92
2022-10-23T00:41:29.807Z,9.82
2022-10-23T00:44:30.356Z,17.08
2022-10-23T00:46:58.092Z,6.70
2022-10-23T00:49:25.512Z,8.95
2022-10-23T00:51:56.933Z,9.15
2022-10-23T00:54:30.206Z,9.20
2022-10-23T00:57:00.009Z,8.88
2022-10-23T00:59:27.073Z,16.10
2022-10-23T01:01:56.413Z,19.95
2022-10-23T01:04:26.603Z,9.05
2022-10-23T01:07:14.982Z,8.20
2022-10-23T01:10:02.801Z,14.52
2022-10-23T01:12:41.482Z,10.48
2022-10-23T01:15:24.486Z,9.10
2022-10-23T01:18:16.885Z,8.98
2022-10-23T01:20:49.935Z,7.07
2022-10-23T01:23:34.700Z,13.23
2022-10-23T01:26:20.010Z,6.32
2022-10-23T01:28:46.594Z,9.00
2022-10-23T01:31:18.404Z,8.98
2022-10-23T01:33:52.443Z,7.13
2022-10-23T01:36:25.471Z,11.23
2022-10-23T01:39:08.475Z,10.53
2022-10-23T01:41:50.285Z,6.78
2022-10-23T01:44:26.390Z,7.32
2022-10-23T01:46:54.498Z,5.30
2022-10-23T01:49:23.106Z,8.48
2022-10-23T01:51:56.634Z,4.88
2022-10-23T01:54:29.284Z,15.13
2022-10-23T01:56:57.961Z,10.68
2022-10-23T01:59:31.854Z,9.95
2022-10-23T02:04:32.984Z,14.82
2022-10-23T02:06:59.786Z,13.68
2022-10-23T02:09:26.715Z,5.90
2022-10-23T02:12:18.608Z,10.60
2022-10-23T02:14:56.348Z,10.25
2022-10-23T02:17:49.078Z,8.50
2022-10-23T02:20:21.925Z,10.52
2022-10-23T02:23:09.273Z,4.93
2022-10-23T02:25:50.391Z,9.40
2022-10-23T02:28:24.471Z,9.15
2022-10-23T02:30:56.553Z,8.52
2022-10-23T02:33:27.410Z,9.85
2022-10-23T02:35:54.286Z,9.75
2022-10-23T02:38:36.831Z,8.63
2022-10-23T02:41:15.200Z,16.58
2022-10-23T02:44:01.441Z,12.18
2022-10-23T02:46:55.891Z,11.10
2022-10-23T02:52:14.727Z,11.55
2022-10-23T02:55:19.275Z,9.43
2022-10-23T02:58:10.576Z,8.52
2022-10-23T03:00:39.622Z,6.50
2022-10-23T03:03:17.092Z,15.00
2022-10-23T03:05:44.910Z,6.63
2022-10-23T03:08:13.540Z,4.65
2022-10-23T03:10:41.731Z,9.52
2022-10-23T03:13:10.289Z,9.90
2022-10-23T03:15:37.192Z,9.18
2022-10-23T03:18:03.976Z,12.85
2022-10-23T03:20:30.662Z,14.10
2022-10-23T03:22:57.255Z,9.65
2022-10-23T03:25:23.893Z,8.20
2022-10-23T03:27:50.502Z,16.80
2022-10-23T03:30:17.452Z,9.45
2022-10-23T03:32:46.565Z,11.63
2022-10-23T03:35:13.174Z,6.47
2022-10-23T03:37:40.065Z,10.18
2022-10-23T03:40:07.533Z,14.43
2022-10-23T03:42:36.392Z,10.98
2022-10-23T03:45:03.392Z,9.48
2022-10-23T03:47:30.482Z,9.23
2022-10-23T03:49:59.338Z,10.65
2022-10-23T03:52:26.008Z,11.68
2022-10-23T03:54:54.868Z,9.30
2022-10-23T03:57:21.613Z,7.65
2022-10-23T03:59:48.266Z,8.10
2022-10-23T04:02:14.978Z,11.95
2022-10-23T04:04:41.653Z,16.98
2022-10-23T04:07:08.340Z,7.75
2022-10-23T04:09:35.025Z,7.15
2022-10-23T04:12:01.736Z,7.15
2022-10-23T04:14:28.500Z,8.70
2022-10-23T04:16:57.326Z,11.52
2022-10-23T04:19:26.123Z,10.88
2022-10-23T04:21:55.001Z,12.20
2022-10-23T04:24:23.756Z,7.50
2022-10-23T04:26:52.698Z,6.97
2022-10-23T04:29:22.449Z,14.27
2022-10-23T04:31:51.362Z,10.13
2022-10-23T04:34:18.897Z,9.85
2022-10-23T04:36:45.516Z,11.88
2022-10-23T04:39:12.791Z,6.93
2022-10-23T04:41:39.427Z,11.05
2022-10-23T04:44:06.326Z,12.90
2022-10-23T04:46:32.957Z,13.50
2022-10-23T04:49:02.404Z,9.07
2022-10-23T04:51:31.621Z,8.43
2022-10-23T04:54:00.371Z,4.05
2022-10-23T04:56:27.043Z,8.43
2022-10-23T04:58:54.757Z,13.05
2022-10-23T05:01:23.622Z,12.82
2022-10-23T05:03:50.299Z,12.00
2022-10-23T05:06:19.476Z,6.63
2022-10-23T05:08:46.074Z,8.55
2022-10-23T05:11:12.720Z,8.18
2022-10-23T05:13:39.351Z,12.02
2022-10-23T05:16:06.261Z,11.65
2022-10-23T05:18:45.688Z,6.00
2022-10-23T05:21:20.365Z,7.10
2022-10-23T05:23:47.275Z,11.02
2022-10-23T05:26:14.119Z,8.07
2022-10-23T05:28:43.210Z,8.40
2022-10-23T05:31:09.929Z,8.00
2022-10-23T05:33:37.710Z,9.77
2022-10-23T05:36:04.751Z,7.57
2022-10-23T05:38:36.114Z,16.85
2022-10-23T05:41:03.239Z,7.47
2022-10-23T05:43:31.196Z,10.70
2022-10-23T05:46:00.956Z,9.43
2022-10-23T05:48:34.717Z,12.68
2022-10-23T05:51:09.999Z,11.80
2022-10-23T05:53:40.101Z,7.07
2022-10-23T05:56:12.289Z,8.30
2022-10-23T05:58:38.945Z,10.90
2022-10-23T06:01:11.204Z,13.18
2022-10-23T06:03:40.995Z,9.20
2022-10-23T06:06:09.850Z,9.50
2022-10-23T06:08:36.564Z,10.38
2022-10-23T06:11:10.598Z,10.95
2022-10-23T06:13:38.138Z,6.55
2022-10-23T06:16:31.214Z,11.13
2022-10-23T06:18:57.850Z,13.27
2022-10-23T06:21:24.825Z,9.13
2022-10-23T06:23:55.142Z,11.93
2022-10-23T06:26:21.879Z,10.68
2022-10-23T06:28:48.497Z,8.70
2022-10-23T06:31:16.213Z,8.68
2022-10-23T06:33:42.916Z,8.77
2022-10-23T06:36:10.712Z,16.23
2022-10-23T06:38:40.318Z,10.98
2022-10-23T06:41:12.431Z,9.82
2022-10-23T06:43:39.153Z,15.57
2022-10-23T06:46:06.534Z,11.48
2022-10-23T06:48:33.208Z,11.13
2022-10-23T06:51:04.102Z,14.30
2022-10-23T06:53:32.905Z,9.23
2022-10-23T06:56:04.202Z,5.00
2022-10-23T06:58:31.319Z,8.65
2022-10-23T07:01:02.018Z,9.00
2022-10-23T07:03:28.990Z,8.93
2022-10-23T07:05:55.903Z,11.13
2022-10-23T07:08:22.712Z,6.50
2022-10-23T07:10:49.471Z,16.55
2022-10-23T07:13:16.116Z,14.25
2022-10-23T07:15:45.017Z,14.05
2022-10-23T07:18:16.433Z,8.68
2022-10-23T07:20:46.979Z,14.25
2022-10-23T07:23:13.597Z,5.72
2022-10-23T07:25:40.277Z,9.82
2022-10-23T07:28:07.080Z,13.30
2022-10-23T07:30:36.264Z,11.18
2022-10-23T07:33:02.939Z,10.05
2022-10-23T07:35:34.410Z,12.65
2022-10-23T07:38:03.819Z,14.43
2022-10-23T07:40:30.461Z,13.95
2022-10-23T07:42:57.212Z,10.20
2022-10-23T07:45:26.313Z,12.10
2022-10-23T07:47:53.097Z,14.13
2022-10-23T07:50:19.846Z,15.70
2022-10-23T07:52:46.887Z,12.45
2022-10-23T07:55:16.228Z,10.88
2022-10-23T07:57:42.957Z,14.18
2022-10-23T08:00:12.021Z,10.48
2022-10-23T08:02:38.674Z,9.32
2022-10-23T08:05:05.673Z,13.68
2022-10-23T08:07:32.424Z,13.82
2022-10-23T08:09:59.050Z,13.93
2022-10-23T08:12:25.838Z,12.45
2022-10-23T08:14:52.605Z,14.93
2022-10-23T08:17:19.229Z,11.18
2022-10-23T08:19:48.384Z,12.82
2022-10-23T08:22:15.470Z,9.57
2022-10-23T08:24:42.168Z,11.40
2022-10-23T08:27:08.765Z,12.32
2022-10-23T08:29:37.861Z,8.10
2022-10-23T08:32:04.841Z,9.90
2022-10-23T08:34:31.548Z,10.82
2022-10-23T08:36:58.277Z,8.48
2022-10-23T08:39:25.035Z,11.27
2022-10-23T08:41:58.209Z,6.38
2022-10-23T08:44:45.247Z,8.43
2022-10-23T08:47:17.328Z,8.93
2022-10-23T08:50:01.189Z,10.48
2022-10-23T08:52:39.752Z,7.43
2022-10-23T08:55:36.314Z,6.72
2022-10-23T08:58:16.024Z,9.00
2022-10-23T09:00:43.938Z,9.30
2022-10-23T09:03:12.756Z,8.07
2022-10-23T09:05:57.902Z,10.23
2022-10-23T09:08:48.215Z,8.35
2022-10-23T09:11:41.558Z,18.52
2022-10-23T09:14:24.992Z,13.15
2022-10-23T09:17:18.343Z,6.95
2022-10-23T09:19:47.664Z,9.35
2022-10-23T09:22:14.379Z,4.30
2022-10-23T09:24:43.174Z,12.15
2022-10-23T09:27:16.703Z,8.90
2022-10-23T09:29:54.865Z,6.95
2022-10-23T09:32:33.916Z,7.00
2022-10-23T09:35:02.807Z,7.65
2022-10-23T09:37:32.467Z,8.43
2022-10-23T09:40:03.951Z,11.52
2022-10-23T09:42:30.722Z,11.38
2022-10-23T09:44:57.626Z,5.35
2022-10-23T09:47:28.167Z,8.85
2022-10-23T09:49:59.475Z,10.45
2022-10-23T09:52:44.113Z,12.75
2022-10-23T09:55:27.375Z,10.27
2022-10-23T09:57:55.137Z,7.73
2022-10-23T10:00:28.038Z,10.43
2022-10-23T10:03:00.633Z,9.50
2022-10-23T10:05:36.697Z,9.75
2022-10-23T10:08:12.174Z,13.98
2022-10-23T10:10:47.685Z,8.32
2022-10-23T10:13:45.273Z,11.00
2022-10-23T10:16:36.695Z,5.38
2022-10-23T10:19:27.284Z,7.50
2022-10-23T10:22:20.926Z,12.25
2022-10-23T10:25:09.307Z,6.25
2022-10-23T10:27:44.848Z,7.53
2022-10-23T10:30:25.185Z,7.00
2022-10-23T10:32:57.879Z,4.18
2022-10-23T10:35:49.211Z,3.90
2022-10-23T10:38:46.589Z,7.30
2022-10-23T10:41:38.309Z,9.45
2022-10-23T10:44:32.140Z,10.85
2022-10-23T10:47:21.175Z,6.95
2022-10-23T10:50:07.433Z,7.43
2022-10-23T10:53:11.182Z,4.57
2022-10-23T10:55:40.637Z,4.93
2022-10-23T10:58:39.989Z,7.88
2022-10-23T11:01:26.588Z,7.05
2022-10-23T11:04:30.429Z,4.32
2022-10-23T11:06:58.164Z,8.68
2022-10-23T11:09:28.061Z,3.92
2022-10-23T11:11:55.060Z,9.07
2022-10-23T11:14:35.381Z,6.43
2022-10-23T11:17:11.985Z,5.00
2022-10-23T11:19:47.023Z,9.32
2022-10-23T11:22:38.247Z,11.90
2022-10-23T11:25:29.350Z,9.15
2022-10-23T11:28:28.453Z,3.45
2022-10-23T11:31:22.088Z,6.57
2022-10-23T11:34:23.926Z,6.60
2022-10-23T11:36:59.150Z,7.35
2022-10-23T11:39:30.907Z,6.38
2022-10-23T11:42:14.652Z,6.40
2022-10-23T11:44:47.052Z,6.05
2022-10-23T11:47:36.311Z,8.30
2022-10-23T11:50:15.572Z,6.03
2022-10-23T11:53:14.572Z,6.25
2022-10-23T11:56:02.984Z,6.40
2022-10-23T11:58:44.425Z,7.55
2022-10-23T12:01:36.339Z,7.57
2022-10-23T12:04:15.303Z,4.80
2022-10-23T12:06:45.456Z,9.70
2022-10-23T12:09:38.705Z,5.80
2022-10-23T12:12:11.142Z,6.60
2022-10-23T12:14:48.097Z,6.32
2022-10-23T12:17:30.448Z,7.47
2022-10-23T12:20:24.290Z,8.27
2022-10-23T12:22:53.821Z,5.05
2022-10-23T12:25:37.086Z,4.50
2022-10-23T12:28:34.521Z,5.82
2022-10-23T12:31:25.476Z,4.65
2022-10-23T12:34:29.339Z,4.47
2022-10-23T12:37:07.955Z,4.10
2022-10-23T12:39:37.441Z,5.80
2022-10-23T12:42:05.076Z,8.77
2022-10-23T12:44:31.948Z,5.35
2022-10-23T12:47:02.393Z,4.95
2022-10-23T12:49:35.462Z,3.70
2022-10-23T12:52:05.564Z,4.32
2022-10-23T12:54:38.058Z,3.13
2022-10-23T12:57:21.142Z,4.10
2022-10-23T12:59:48.448Z,4.38
2022-10-23T13:02:24.387Z,6.07
2022-10-23T13:04:53.813Z,5.00
2022-10-23T13:07:25.482Z,6.63
2022-10-23T13:09:53.129Z,7.32
2022-10-23T13:12:27.151Z,6.47
2022-10-23T13:15:03.229Z,6.13
2022-10-23T13:17:40.040Z,4.47
2022-10-23T13:20:19.984Z,4.70
2022-10-23T13:22:57.733Z,35.28
2022-10-23T13:25:30.792Z,4.40
2022-10-23T13:28:23.261Z,4.18
2022-10-23T13:31:02.985Z,6.78
2022-10-23T13:33:36.607Z,6.38
2022-10-23T13:36:21.709Z,4.85
2022-10-23T13:39:00.279Z,7.45
2022-10-23T13:41:39.453Z,8.80
2022-10-23T13:44:06.790Z,3.08
2022-10-23T13:46:33.457Z,6.70
2022-10-23T13:49:00.183Z,3.58
2022-10-23T13:51:37.570Z,6.78
2022-10-23T13:54:14.550Z,5.90
2022-10-23T13:56:41.465Z,12.15
2022-10-23T13:59:10.659Z,5.70
2022-10-23T14:01:40.195Z,4.93
2022-10-23T14:04:12.618Z,5.95
2022-10-23T14:06:39.776Z,3.55
2022-10-23T14:09:08.241Z,6.57
2022-10-23T14:11:35.027Z,5.07
2022-10-23T14:14:02.200Z,8.23
2022-10-23T14:16:29.336Z,2.65
2022-10-23T14:18:56.449Z,9.38
2022-10-23T14:21:24.670Z,5.30
2022-10-23T14:23:56.566Z,5.35
2022-10-23T14:26:27.571Z,4.50
2022-10-23T14:28:57.492Z,6.22
2022-10-23T14:31:28.919Z,3.78
2022-10-23T14:33:58.554Z,6.15
2022-10-23T14:36:28.322Z,6.43
2022-10-23T14:39:01.023Z,5.78
2022-10-23T14:41:27.981Z,4.53
2022-10-23T14:43:55.204Z,5.80
2022-10-23T14:46:24.745Z,3.28
2022-10-23T14:48:56.437Z,4.88
2022-10-23T14:51:26.696Z,2.87
2022-10-23T14:54:04.418Z,7.22
2022-10-23T14:56:33.190Z,3.70
2022-10-23T14:59:04.843Z,4.13
2022-10-23T15:01:43.777Z,6.80
2022-10-23T15:04:16.433Z,7.40
2022-10-23T15:06:47.098Z,6.03
2022-10-23T15:09:14.905Z,4.95
2022-10-23T15:11:41.614Z,7.20
2022-10-23T15:14:08.407Z,7.25
2022-10-23T15:16:41.370Z,7.43
2022-10-23T15:19:15.329Z,4.85
2022-10-23T15:21:48.617Z,8.90
2022-10-23T15:24:16.728Z,2.53
2022-10-23T15:26:43.932Z,3.00
2022-10-23T15:29:11.289Z,3.95
2022-10-23T15:31:38.005Z,4.28
2022-10-23T15:34:05.501Z,6.25
2022-10-23T15:36:35.388Z,9.82
2022-10-23T15:39:02.573Z,4.10
2022-10-23T15:41:36.789Z,3.67
2022-10-23T15:44:05.146Z,7.43
2022-10-23T15:46:32.821Z,3.63
2022-10-23T15:48:59.708Z,7.43
2022-10-23T15:51:26.885Z,5.35
2022-10-23T15:53:53.604Z,6.50
2022-10-23T15:56:22.986Z,5.25
2022-10-23T15:58:49.951Z,6.40
2022-10-23T16:01:16.665Z,5.63
2022-10-23T16:03:43.690Z,10.75
2022-10-23T16:06:13.386Z,7.75
2022-10-23T16:08:40.882Z,6.13
2022-10-23T16:11:18.735Z,6.30
2022-10-23T16:13:45.574Z,7.15
2022-10-23T16:16:13.086Z,5.25
2022-10-23T16:18:43.825Z,5.00
2022-10-23T16:21:19.226Z,7.13
2022-10-23T16:23:48.129Z,14.20
2022-10-23T16:26:15.908Z,6.28
2022-10-23T16:28:45.650Z,7.53
2022-10-23T16:31:20.321Z,8.77
2022-10-23T16:33:48.202Z,8.20
2022-10-23T16:36:15.332Z,8.15
2022-10-23T16:38:41.962Z,5.88
2022-10-23T16:41:08.655Z,6.35
2022-10-23T16:43:35.466Z,5.20
2022-10-23T16:46:02.083Z,9.52
2022-10-23T16:48:29.961Z,10.02
2022-10-23T16:50:56.722Z,5.70
2022-10-23T16:53:28.723Z,9.75
2022-10-23T16:55:56.657Z,10.63
2022-10-23T16:58:24.254Z,6.28
2022-10-23T17:01:05.755Z,6.80
2022-10-23T17:03:43.109Z,12.10
2022-10-23T17:06:14.573Z,10.02
2022-10-23T17:08:41.519Z,10.23
2022-10-23T17:11:23.890Z,13.40
2022-10-23T17:13:57.162Z,13.63
2022-10-23T17:16:50.549Z,11.07
2022-10-23T17:19:43.313Z,6.70
2022-10-23T17:22:12.375Z,5.40
2022-10-23T17:24:40.347Z,5.32
2022-10-23T17:27:07.177Z,12.45
2022-10-23T17:29:34.176Z,5.40
2022-10-23T17:32:01.338Z,6.43
2022-10-23T17:34:28.217Z,10.60
2022-10-23T17:36:55.712Z,10.30
2022-10-23T17:39:27.835Z,7.53
2022-10-23T17:41:56.235Z,7.65
2022-10-23T17:44:23.326Z,7.35
2022-10-23T17:46:53.467Z,10.85
2022-10-23T17:49:23.382Z,10.05
2022-10-23T17:51:55.086Z,9.40
2022-10-23T17:54:22.447Z,5.03
2022-10-23T17:56:49.267Z,8.90
2022-10-23T17:59:21.110Z,8.75
2022-10-23T18:01:49.038Z,16.75
2022-10-23T18:04:17.828Z,12.95
2022-10-23T18:06:47.897Z,14.52
2022-10-23T18:09:14.954Z,13.75
2022-10-23T18:11:47.039Z,8.48
2022-10-23T18:14:20.227Z,13.57
2022-10-23T18:16:50.203Z,10.68
2022-10-23T18:19:21.099Z,10.15
2022-10-23T18:21:50.390Z,8.68
2022-10-23T18:24:17.635Z,16.02
2022-10-23T18:26:46.010Z,8.93
2022-10-23T18:29:13.285Z,10.23
2022-10-23T18:31:40.844Z,16.95
2022-10-23T18:34:22.659Z,12.23
2022-10-23T18:36:50.969Z,19.52
2022-10-23T18:39:22.078Z,12.45
2022-10-23T18:41:51.814Z,11.75
2022-10-23T18:44:23.193Z,13.30
2022-10-23T18:46:51.140Z,15.57
2022-10-23T18:49:19.014Z,25.05
2022-10-23T18:51:46.574Z,16.42
2022-10-23T18:54:15.373Z,9.27
2022-10-23T18:56:42.423Z,10.75
2022-10-23T18:59:14.873Z,14.40
2022-10-23T19:01:42.184Z,13.77
2022-10-23T19:04:11.531Z,18.73
2022-10-23T19:06:38.710Z,9.77
2022-10-23T19:09:07.820Z,11.13
2022-10-23T19:11:34.724Z,11.65
2022-10-23T19:14:01.488Z,18.10
2022-10-23T19:16:35.240Z,12.55
2022-10-23T19:19:27.022Z,11.77
2022-10-23T19:21:54.912Z,18.45
2022-10-23T19:24:31.986Z,12.90
2022-10-23T19:27:00.549Z,11.98
2022-10-23T19:29:30.438Z,10.63
2022-10-23T19:31:57.438Z,16.13
2022-10-23T19:34:26.786Z,12.77
2022-10-23T19:36:54.783Z,14.02
2022-10-23T19:39:21.946Z,10.93
2022-10-23T19:41:51.561Z,11.55
2022-10-23T19:44:21.031Z,15.60
2022-10-23T19:46:48.727Z,15.20
2022-10-23T19:49:15.800Z,20.40
2022-10-23T19:51:50.601Z,14.20
2022-10-23T19:54:18.689Z,17.75
2022-10-23T19:56:50.525Z,14.75
2022-10-23T19:59:20.344Z,14.82
2022-10-23T20:01:48.940Z,15.05
2022-10-23T20:04:17.684Z,10.23
2022-10-23T20:06:44.468Z,14.38
2022-10-23T20:09:11.190Z,17.95
2022-10-23T20:11:41.663Z,20.15
2022-10-23T20:14:11.552Z,14.48
2022-10-23T20:16:41.314Z,21.65
2022-10-23T20:19:10.231Z,18.17
2022-10-23T20:21:38.483Z,18.08
2022-10-23T20:24:08.050Z,13.00
2022-10-23T20:26:38.924Z,16.67
2022-10-23T20:29:08.280Z,22.48
2022-10-23T20:31:36.396Z,18.30
2022-10-23T20:34:06.530Z,19.70
2022-10-23T20:36:35.880Z,14.77
2022-10-23T20:39:08.782Z,22.02
2022-10-23T20:41:37.160Z,22.60
2022-10-23T20:44:10.723Z,12.98
2022-10-23T20:46:40.164Z,13.35
2022-10-23T20:49:07.128Z,17.85
2022-10-23T20:51:36.269Z,16.52
2022-10-23T20:54:03.525Z,19.08
2022-10-23T20:56:32.754Z,17.58
2022-10-23T20:59:11.246Z,20.40
2022-10-23T21:01:41.001Z,13.93
2022-10-23T21:04:07.869Z,12.80
2022-10-23T21:06:46.219Z,19.15
2022-10-23T21:09:24.122Z,11.25
2022-10-23T21:11:51.213Z,16.25
2022-10-23T21:14:17.819Z,18.55
2022-10-23T21:16:46.807Z,17.85
2022-10-23T21:19:15.939Z,17.75
2022-10-23T21:21:45.753Z,11.52
2022-10-23T21:24:18.167Z,16.75
2022-10-23T21:26:45.302Z,20.70
2022-10-23T21:29:18.365Z,17.55
2022-10-23T21:31:53.749Z,12.70
2022-10-23T21:34:20.490Z,15.90
2022-10-23T21:37:11.782Z,18.58
2022-10-23T21:39:34.335Z,13.77
2022-10-23T21:42:01.031Z,12.73
2022-10-23T21:44:27.713Z,17.98
2022-10-23T21:46:54.386Z,13.07
2022-10-23T21:49:25.708Z,19.15
2022-10-23T21:51:52.980Z,12.82
2022-10-23T21:54:19.658Z,15.18
2022-10-23T21:56:48.974Z,14.13
2022-10-23T21:59:27.740Z,14.15
2022-10-23T22:01:59.678Z,18.95
2022-10-23T22:04:28.789Z,17.08
2022-10-23T22:06:55.539Z,19.83
2022-10-23T22:09:23.029Z,17.58
2022-10-23T22:11:51.197Z,12.65
2022-10-23T22:14:18.723Z,20.88
2022-10-23T22:16:46.143Z,25.70
2022-10-23T22:19:14.893Z,12.40
2022-10-23T22:21:42.145Z,19.25
2022-10-23T22:24:09.573Z,17.80
2022-10-23T22:26:40.840Z,19.58
2022-10-23T22:29:14.015Z,25.23
2022-10-23T22:31:44.178Z,19.77
2022-10-23T22:34:25.266Z,19.23
2022-10-23T22:37:00.766Z,12.20
2022-10-23T22:39:27.402Z,20.13
2022-10-23T22:41:57.053Z,20.90
2022-10-23T22:44:23.675Z,21.35
2022-10-23T22:46:50.772Z,19.77
2022-10-23T22:49:17.537Z,18.98
2022-10-23T22:51:44.189Z,17.05
2022-10-23T22:54:13.410Z,19.05
2022-10-23T22:56:40.121Z,21.33
2022-10-23T22:59:06.786Z,23.02
2022-10-23T23:01:41.514Z,17.02
2022-10-23T23:04:19.789Z,19.23
2022-10-23T23:06:55.159Z,24.58
2022-10-23T23:09:21.819Z,21.23
2022-10-23T23:11:52.556Z,15.85
2022-10-23T23:14:23.490Z,22.85
2022-10-23T23:16:52.774Z,18.20
2022-10-23T23:19:20.181Z,16.48
2022-10-23T23:21:46.937Z,26.27
2022-10-23T23:24:13.933Z,21.13
2022-10-23T23:26:43.091Z,21.95
2022-10-23T23:29:09.739Z,22.67
2022-10-23T23:31:36.391Z,27.00
2022-10-23T23:34:03.017Z,20.60
2022-10-23T23:36:32.724Z,17.90
2022-10-23T23:39:02.006Z,17.17
2022-10-23T23:41:29.230Z,19.50
2022-10-23T23:44:01.157Z,19.13
2022-10-23T23:46:27.828Z,16.77
2022-10-23T23:48:54.427Z,20.88
2022-10-23T23:51:23.991Z,19.58
2022-10-23T23:53:51.377Z,14.82
2022-10-23T23:56:18.959Z,20.70
2022-10-23T23:58:45.578Z,19.55
